Time;durP1;ratioP1;P1;durP2;ratioP2;P2;SDS_P1;SDS_P2;PMS_P1;PMS_P2;Temp;Humidity;BMP_temperature;BMP_pressure;BME280_temperature;BME280_humidity;BME280_pressure;Samples;Min_cycle;Max_cycle;Signal;HPM_P1;HPM_P2
2021/12/04 00:00:48;;;;;;;54.83;30.48;;;4.50;99.90;;;;;;5045440;28;20037;-81
2021/12/04 00:03:14;;;;;;;46.95;28.77;;;4.50;99.90;;;;;;5051322;28;20040;-81
2021/12/04 00:05:45;;;;;;;47.83;28.90;;;4.50;99.90;;;;;;5082559;28;20047;-81
2021/12/04 00:08:11;;;;;;;51.67;29.90;;;4.50;99.90;;;;;;5063687;28;20825;-81
2021/12/04 00:10:36;;;;;;;48.80;28.30;;;4.50;99.90;;;;;;5047820;28;20119;-81
2021/12/04 00:13:02;;;;;;;51.05;30.05;;;4.50;99.90;;;;;;5064530;28;20032;-80
2021/12/04 00:15:28;;;;;;;47.55;29.75;;;4.50;99.90;;;;;;5044341;28;20037;-80
2021/12/04 00:17:56;;;;;;;51.63;29.13;;;4.60;99.90;;;;;;5042940;28;20036;-80
2021/12/04 00:20:24;;;;;;;54.83;30.50;;;4.50;99.90;;;;;;5060297;28;20048;-80
2021/12/04 00:22:50;;;;;;;49.40;30.75;;;4.50;99.90;;;;;;5061284;28;20505;-80
2021/12/04 00:25:16;;;;;;;51.50;29.63;;;4.50;99.90;;;;;;5048268;28;20044;-81
2021/12/04 00:27:42;;;;;;;54.38;32.22;;;4.50;99.90;;;;;;5036218;28;20048;-81
2021/12/04 00:30:08;;;;;;;58.70;32.72;;;4.40;99.90;;;;;;5041670;28;20036;-81
2021/12/04 00:32:36;;;;;;;59.90;32.15;;;4.40;99.90;;;;;;5067379;28;20072;-81
2021/12/04 00:35:21;;;;;;;51.50;30.92;;;4.50;99.90;;;;;;5092769;28;20487;-81
2021/12/04 00:38:06;;;;;;;54.08;31.00;;;4.50;99.90;;;;;;5044551;28;20571;-81
2021/12/04 00:51:45;;;;;;;55.22;30.73;;;4.50;99.90;;;;;;5066748;28;20058;-80
2021/12/04 00:54:12;;;;;;;59.58;32.65;;;4.50;99.90;;;;;;5064401;28;20118;-80
2021/12/04 00:56:40;;;;;;;57.67;32.00;;;4.50;99.90;;;;;;5088774;28;20127;-80
2021/12/04 00:59:06;;;;;;;63.05;33.72;;;4.50;99.90;;;;;;5062699;28;20483;-80
2021/12/04 01:01:33;;;;;;;53.80;31.25;;;4.50;99.90;;;;;;5047727;28;20047;-80
2021/12/04 01:03:59;;;;;;;56.65;32.00;;;4.40;99.90;;;;;;5079622;28;20032;-81
2021/12/04 01:06:25;;;;;;;57.45;31.88;;;4.50;99.90;;;;;;5043667;28;20035;-81
2021/12/04 01:08:50;;;;;;;53.70;30.67;;;4.50;99.90;;;;;;5053404;28;20092;-80
2021/12/04 01:11:16;;;;;;;55.20;32.40;;;4.50;99.90;;;;;;5047042;28;20503;-80
2021/12/04 01:13:42;;;;;;;56.35;32.83;;;4.40;99.90;;;;;;5080017;28;20092;-81
2021/12/04 01:16:11;;;;;;;52.92;31.40;;;4.50;99.90;;;;;;5046386;28;20044;-81
2021/12/04 01:18:37;;;;;;;51.20;30.90;;;4.50;99.90;;;;;;5043329;28;20033;-80
2021/12/04 01:21:03;;;;;;;52.25;31.25;;;4.50;99.90;;;;;;5055988;28;20032;-80
2021/12/04 01:23:29;;;;;;;49.58;29.98;;;4.50;99.90;;;;;;5062167;28;20040;-80
2021/12/04 01:25:55;;;;;;;51.50;31.30;;;4.50;99.90;;;;;;5046021;28;20031;-80
2021/12/04 01:28:20;;;;;;;53.63;32.22;;;4.50;99.90;;;;;;5044512;28;20104;-80
2021/12/04 01:30:46;;;;;;;50.03;31.08;;;4.50;99.90;;;;;;5053258;28;20063;-80
2021/12/04 01:33:12;;;;;;;44.38;30.40;;;4.50;99.90;;;;;;5025199;28;20040;-81
2021/12/04 01:35:38;;;;;;;46.80;29.80;;;4.50;99.90;;;;;;5043051;28;20097;-80
2021/12/04 01:38:03;;;;;;;46.25;31.23;;;4.50;99.90;;;;;;5038381;28;20040;-81
2021/12/04 01:40:29;;;;;;;46.03;30.45;;;4.50;99.90;;;;;;5063576;28;20094;-81
2021/12/04 01:42:55;;;;;;;42.60;28.13;;;4.50;99.90;;;;;;5046012;28;20048;-81
2021/12/04 01:45:21;;;;;;;46.50;30.40;;;4.60;99.90;;;;;;5059955;28;20431;-81
2021/12/04 01:47:47;;;;;;;41.05;27.40;;;4.50;99.90;;;;;;5052376;28;20044;-81
2021/12/04 01:50:13;;;;;;;41.13;27.70;;;4.50;99.90;;;;;;5059084;28;20564;-81
2021/12/04 01:52:39;;;;;;;39.70;27.52;;;4.50;99.90;;;;;;5078846;28;20088;-81
2021/12/04 01:55:05;;;;;;;37.72;27.15;;;4.50;99.90;;;;;;5062719;28;20032;-81
2021/12/04 01:57:32;;;;;;;37.05;26.38;;;4.50;99.90;;;;;;5063255;28;20036;-81
2021/12/04 01:59:58;;;;;;;37.60;26.10;;;4.50;99.90;;;;;;5079064;28;20040;-81
2021/12/04 02:02:24;;;;;;;36.20;24.92;;;4.50;99.90;;;;;;5041771;28;20101;-81
2021/12/04 02:04:50;;;;;;;35.78;25.40;;;4.50;99.90;;;;;;5058299;28;20040;-81
2021/12/04 02:07:19;;;;;;;35.45;23.88;;;4.50;99.90;;;;;;5061532;28;20036;-81
2021/12/04 02:09:45;;;;;;;34.17;23.83;;;4.50;99.90;;;;;;5078229;28;20047;-81
2021/12/04 02:12:11;;;;;;;32.67;23.10;;;4.50;99.90;;;;;;5045491;28;20032;-81
2021/12/04 02:14:40;;;;;;;31.23;21.80;;;4.50;99.90;;;;;;5045238;28;20037;-81
2021/12/04 02:17:07;;;;;;;31.75;22.05;;;4.50;99.90;;;;;;5075063;28;20036;-81
2021/12/04 02:19:33;;;;;;;31.98;22.35;;;4.50;99.90;;;;;;5035754;28;20082;-81
2021/12/04 02:21:59;;;;;;;28.45;20.42;;;4.70;99.90;;;;;;5062852;28;20518;-81
2021/12/04 02:24:25;;;;;;;26.88;20.00;;;4.40;99.90;;;;;;5061181;28;20042;-81
2021/12/04 02:26:51;;;;;;;28.65;20.48;;;4.50;99.90;;;;;;5048479;28;20045;-81
2021/12/04 02:29:18;;;;;;;25.10;18.88;;;4.40;99.90;;;;;;5045221;28;20104;-81
2021/12/04 02:31:49;;;;;;;23.50;18.35;;;4.40;99.90;;;;;;5063261;28;20076;-81
2021/12/04 02:34:30;;;;;;;24.42;18.80;;;4.40;99.90;;;;;;5044736;28;20085;-81
2021/12/04 02:36:57;;;;;;;22.97;17.57;;;4.50;99.90;;;;;;5062748;28;20487;-81
2021/12/04 02:39:30;;;;;;;23.30;17.98;;;4.40;99.90;;;;;;5029145;28;20495;-81
2021/12/04 02:41:57;;;;;;;23.88;17.58;;;4.50;99.90;;;;;;5079624;28;20487;-81
2021/12/04 02:44:35;;;;;;;23.15;17.77;;;4.50;99.90;;;;;;5062678;28;20032;-81
2021/12/04 02:47:05;;;;;;;22.65;18.08;;;4.40;99.90;;;;;;5098165;28;20040;-81
2021/12/04 02:49:31;;;;;;;25.15;18.98;;;4.60;99.90;;;;;;5061725;28;20036;-81
2021/12/04 02:52:02;;;;;;;21.60;17.63;;;4.40;99.90;;;;;;5045390;28;20032;-81
2021/12/04 02:54:29;;;;;;;24.63;19.35;;;4.40;99.90;;;;;;5058325;28;20094;-80
2021/12/04 02:56:55;;;;;;;24.77;19.25;;;4.40;99.90;;;;;;5067923;28;20055;-80
2021/12/04 02:59:20;;;;;;;24.92;18.90;;;4.40;99.90;;;;;;5061944;28;20127;-80
2021/12/04 03:01:46;;;;;;;22.08;18.10;;;4.40;99.90;;;;;;5078436;28;20036;-80
2021/12/04 03:04:13;;;;;;;23.45;18.40;;;4.40;99.90;;;;;;5078424;28;20050;-80
2021/12/04 03:06:41;;;;;;;22.38;17.33;;;4.40;99.90;;;;;;5043423;28;20036;-80
2021/12/04 03:09:07;;;;;;;22.73;18.17;;;4.40;99.90;;;;;;5040543;28;20039;-81
2021/12/04 03:11:33;;;;;;;21.63;17.77;;;4.40;99.90;;;;;;5043182;28;20523;-81
2021/12/04 03:14:00;;;;;;;21.95;17.98;;;4.40;99.90;;;;;;5062090;28;20024;-81
2021/12/04 03:16:25;;;;;;;21.63;17.73;;;4.40;99.90;;;;;;5076943;28;20036;-80
2021/12/04 03:18:51;;;;;;;20.17;15.82;;;4.80;99.90;;;;;;5048321;28;20150;-80
2021/12/04 03:21:17;;;;;;;21.00;16.65;;;4.40;99.90;;;;;;5065045;28;20032;-80
2021/12/04 03:26:46;;;;;;;20.40;15.48;;;4.40;99.90;;;;;;5006456;28;20113;-80
2021/12/04 03:29:16;;;;;;;22.23;17.25;;;4.30;99.90;;;;;;5065896;28;20121;-80
2021/12/04 03:42:45;;;;;;;18.27;14.85;;;4.40;99.90;;;;;;5029019;28;20051;-80
2021/12/04 03:45:10;;;;;;;21.10;16.25;;;4.40;99.90;;;;;;5058337;28;20511;-80
2021/12/04 03:47:41;;;;;;;19.88;15.20;;;4.40;99.90;;;;;;5081552;28;20047;-80
2021/12/04 03:50:07;;;;;;;20.52;16.17;;;4.40;99.90;;;;;;5045472;28;20101;-80
2021/12/04 03:52:33;;;;;;;19.92;15.85;;;4.40;99.90;;;;;;5064977;28;20044;-82
2021/12/04 03:54:59;;;;;;;20.88;16.35;;;4.40;99.90;;;;;;5080446;28;20047;-80
2021/12/04 03:57:25;;;;;;;20.05;15.95;;;4.80;99.90;;;;;;5064472;28;20044;-80
2021/12/04 03:59:51;;;;;;;20.50;16.05;;;4.40;99.90;;;;;;5034293;28;20036;-80
2021/12/04 04:02:17;;;;;;;20.67;15.80;;;4.30;99.90;;;;;;5065172;28;20066;-80
2021/12/04 04:04:43;;;;;;;22.73;17.23;;;4.30;99.90;;;;;;5046279;28;20044;-80
2021/12/04 04:07:09;;;;;;;22.45;16.55;;;4.30;99.90;;;;;;5048211;28;20047;-80
2021/12/04 04:09:35;;;;;;;21.13;16.33;;;4.50;99.90;;;;;;5063966;28;20032;-80
2021/12/04 04:12:02;;;;;;;20.88;16.10;;;4.30;99.90;;;;;;5048448;28;20028;-80
2021/12/04 04:14:28;;;;;;;22.58;16.40;;;4.30;99.90;;;;;;5028261;28;20036;-80
2021/12/04 04:16:56;;;;;;;22.85;16.70;;;4.30;99.90;;;;;;5081448;28;20454;-80
2021/12/04 04:19:24;;;;;;;21.88;16.83;;;4.30;99.90;;;;;;5080469;28;20040;-80
2021/12/04 04:21:56;;;;;;;23.08;17.27;;;4.30;99.90;;;;;;5070399;28;20069;-80
2021/12/04 04:24:23;;;;;;;;;;;4.30;99.90;;;;;;5047386;28;20044;-80
2021/12/04 04:26:49;;;;;;;20.85;15.82;;;4.30;99.90;;;;;;5062242;28;20375;-80
2021/12/04 04:29:15;;;;;;;20.33;15.75;;;4.30;99.90;;;;;;5032696;28;20096;-80
2021/12/04 04:31:46;;;;;;;22.40;16.40;;;4.30;99.90;;;;;;5058829;28;20120;-80
2021/12/04 04:34:19;;;;;;;21.83;16.23;;;4.30;99.90;;;;;;5064552;28;20075;-80
2021/12/04 04:37:06;;;;;;;21.52;16.38;;;4.30;99.90;;;;;;5081244;28;20044;-80
2021/12/04 05:00:21;;;;;;;22.60;16.45;;;4.30;99.90;;;;;;5046420;28;20536;-80
2021/12/04 05:13:21;;;;;;;20.90;15.95;;;4.30;99.90;;;;;;5080212;28;20518;-80
2021/12/04 05:20:53;;;;;;;22.85;16.95;;;4.30;99.90;;;;;;5079974;28;20079;-80
2021/12/04 05:23:23;;;;;;;20.90;16.27;;;4.30;99.90;;;;;;5063805;28;20048;-80
2021/12/04 05:25:50;;;;;;;22.67;17.15;;;4.30;99.90;;;;;;5059644;28;20047;-80
2021/12/04 05:28:17;;;;;;;22.23;17.00;;;4.30;99.90;;;;;;5076563;28;20097;-80
2021/12/04 05:30:43;;;;;;;21.95;16.52;;;4.30;99.90;;;;;;5061413;28;20040;-80
2021/12/04 05:33:08;;;;;;;22.05;15.85;;;4.30;99.90;;;;;;5047469;28;20087;-80
2021/12/04 05:35:35;;;;;;;20.10;15.95;;;4.30;99.90;;;;;;5063214;28;20123;-80
2021/12/04 05:38:01;;;;;;;20.65;16.33;;;4.30;99.90;;;;;;5044258;28;20046;-80
2021/12/04 05:40:27;;;;;;;21.20;16.70;;;4.40;99.90;;;;;;5044643;28;20140;-80
2021/12/04 05:43:00;;;;;;;20.90;16.80;;;4.30;99.90;;;;;;5061209;28;20130;-80
2021/12/04 05:45:27;;;;;;;21.08;16.17;;;4.30;99.90;;;;;;5047939;28;20032;-80
2021/12/04 05:48:03;;;;;;;21.17;16.83;;;4.30;99.90;;;;;;5038666;28;20047;-80
2021/12/04 05:53:16;;;;;;;24.73;18.40;;;4.30;99.90;;;;;;5062309;28;20052;-80
2021/12/04 05:55:56;;;;;;;22.15;16.42;;;4.30;99.90;;;;;;5059110;28;20036;-80
2021/12/04 05:58:27;;;;;;;20.83;16.80;;;4.30;99.90;;;;;;5043885;28;20051;-80
2021/12/04 06:00:55;;;;;;;21.57;17.37;;;4.30;99.90;;;;;;5059769;28;20040;-80
2021/12/04 06:03:21;;;;;;;21.60;17.00;;;4.40;99.90;;;;;;5047350;28;20499;-80
2021/12/04 06:05:47;;;;;;;21.58;17.05;;;4.40;99.90;;;;;;5057429;28;20047;-80
2021/12/04 06:08:13;;;;;;;25.50;17.70;;;4.40;99.90;;;;;;5075520;28;20109;-80
2021/12/04 06:10:39;;;;;;;20.75;16.48;;;5.00;99.90;;;;;;5062010;28;20085;-80
2021/12/04 06:13:05;;;;;;;23.13;16.98;;;4.40;99.90;;;;;;5060027;28;20435;-80
2021/12/04 06:15:32;;;;;;;23.42;17.73;;;4.40;99.90;;;;;;5076921;28;20036;-80
2021/12/04 06:17:57;;;;;;;23.10;18.00;;;4.40;99.90;;;;;;5076706;28;20115;-80
2021/12/04 06:23:08;;;;;;;27.67;18.70;;;4.40;99.90;;;;;;5077256;28;20076;-80
2021/12/04 06:25:34;;;;;;;26.58;18.48;;;4.30;99.90;;;;;;5043197;28;20043;-80
2021/12/04 06:28:01;;;;;;;24.90;18.58;;;4.30;99.90;;;;;;5062049;28;20040;-80
2021/12/04 06:30:27;;;;;;;28.58;19.27;;;4.30;99.90;;;;;;5061126;28;20040;-80
2021/12/04 06:32:54;;;;;;;26.35;18.52;;;4.30;99.90;;;;;;5077709;28;20038;-80
2021/12/04 06:35:21;;;;;;;26.65;18.95;;;4.30;99.90;;;;;;5058798;28;20036;-80
2021/12/04 06:37:48;;;;;;;26.52;18.75;;;4.30;99.90;;;;;;5078838;28;20571;-80
2021/12/04 06:40:16;;;;;;;24.10;17.20;;;4.30;99.90;;;;;;5058931;28;20040;-80
2021/12/04 06:42:43;;;;;;;25.83;18.55;;;4.30;99.90;;;;;;5062571;28;20040;-80
2021/12/04 06:45:10;;;;;;;26.60;17.77;;;4.40;99.90;;;;;;5055329;28;20051;-80
2021/12/04 06:47:37;;;;;;;26.38;18.20;;;4.30;99.90;;;;;;5082668;28;20047;-80
2021/12/04 06:50:12;;;;;;;25.90;18.45;;;4.30;99.90;;;;;;5070659;28;20028;-80
2021/12/04 06:52:42;;;;;;;27.30;18.55;;;4.30;99.90;;;;;;5100095;28;20040;-80
2021/12/04 06:55:08;;;;;;;26.10;17.50;;;4.30;99.90;;;;;;5062070;28;20097;-80
2021/12/04 06:57:38;;;;;;;24.60;17.48;;;4.30;99.90;;;;;;5050988;28;20040;-80
2021/12/04 07:00:06;;;;;;;26.58;18.52;;;4.40;99.90;;;;;;5065664;28;20453;-80
2021/12/04 07:02:32;;;;;;;24.40;17.83;;;4.30;99.90;;;;;;5049743;28;20376;-80
2021/12/04 07:04:57;;;;;;;23.98;17.77;;;4.40;99.90;;;;;;5065616;28;20043;-80
2021/12/04 07:07:23;;;;;;;25.48;18.25;;;4.40;99.90;;;;;;5046364;28;20435;-81
2021/12/04 07:09:49;;;;;;;25.83;18.73;;;4.40;99.90;;;;;;5055393;28;20029;-80
2021/12/04 07:12:15;;;;;;;26.35;18.38;;;4.50;99.90;;;;;;5049575;28;20040;-80
2021/12/04 07:14:40;;;;;;;26.27;18.80;;;4.40;99.90;;;;;;5061906;28;20499;-80
2021/12/04 07:17:08;;;;;;;25.35;18.40;;;4.40;99.90;;;;;;5048888;28;20081;-80
2021/12/04 07:19:34;;;;;;;23.90;17.65;;;4.40;99.90;;;;;;5032838;28;20449;-80
2021/12/04 07:22:02;;;;;;;24.38;18.40;;;4.40;99.90;;;;;;5048375;28;20044;-80
2021/12/04 07:24:29;;;;;;;28.15;19.38;;;4.40;99.90;;;;;;5071417;28;20036;-80
2021/12/04 07:26:55;;;;;;;25.33;17.92;;;4.50;99.90;;;;;;5027722;28;20094;-80
2021/12/04 07:29:21;;;;;;;25.55;18.35;;;4.40;99.90;;;;;;5028527;28;20040;-80
2021/12/04 07:31:47;;;;;;;28.20;19.70;;;4.40;99.90;;;;;;5064730;28;20036;-80
2021/12/04 07:34:13;;;;;;;29.77;19.48;;;4.40;99.90;;;;;;5054714;28;20036;-80
2021/12/04 07:36:39;;;;;;;27.13;18.95;;;4.40;99.90;;;;;;5082117;28;20036;-80
2021/12/04 07:39:05;;;;;;;31.00;21.33;;;4.40;99.90;;;;;;5064328;28;20047;-80
2021/12/04 07:41:31;;;;;;;31.50;20.48;;;4.50;99.90;;;;;;5080428;28;20403;-80
2021/12/04 07:43:57;;;;;;;33.28;21.23;;;4.40;99.90;;;;;;5064354;28;20032;-80
2021/12/04 07:46:22;;;;;;;32.83;21.13;;;4.50;99.90;;;;;;5051635;28;20124;-80
2021/12/04 07:48:48;;;;;;;32.08;21.35;;;4.50;99.90;;;;;;5047803;28;20064;-80
2021/12/04 07:51:17;;;;;;;36.63;22.65;;;4.50;99.90;;;;;;5028411;28;20094;-80
2021/12/04 07:53:46;;;;;;;34.50;21.65;;;4.50;99.90;;;;;;5073857;28;20060;-80
2021/12/04 07:56:13;;;;;;;34.30;21.73;;;4.50;99.90;;;;;;5050055;28;20158;-80
2021/12/04 07:58:39;;;;;;;39.17;23.52;;;4.50;99.90;;;;;;5046191;28;20044;-80
2021/12/04 08:01:04;;;;;;;41.00;23.05;;;4.60;99.90;;;;;;5044419;28;20043;-81
2021/12/04 08:03:30;;;;;;;38.65;22.83;;;4.60;99.90;;;;;;5050785;28;20483;-80
2021/12/04 08:05:56;;;;;;;40.20;22.98;;;5.10;99.90;;;;;;5064237;28;20058;-80
2021/12/04 08:08:22;;;;;;;36.45;22.55;;;4.60;99.90;;;;;;5043745;28;20040;-80
2021/12/04 08:10:47;;;;;;;37.20;22.90;;;4.70;99.90;;;;;;5047454;28;20086;-80
2021/12/04 08:13:13;;;;;;;42.15;24.77;;;4.70;99.90;;;;;;5064138;28;20039;-80
2021/12/04 08:15:39;;;;;;;43.58;24.40;;;4.70;99.90;;;;;;5039209;28;20107;-80
2021/12/04 08:18:07;;;;;;;38.88;23.70;;;4.70;99.90;;;;;;5038633;28;20041;-80
2021/12/04 08:20:33;;;;;;;41.05;24.17;;;4.70;99.90;;;;;;5081284;28;20491;-80
2021/12/04 08:22:59;;;;;;;40.85;22.92;;;4.70;99.90;;;;;;5079848;28;20118;-81
2021/12/04 08:25:26;;;;;;;42.20;24.05;;;4.70;99.90;;;;;;5043865;28;20555;-81
2021/12/04 08:27:52;;;;;;;43.17;24.92;;;4.70;99.90;;;;;;5068690;28;20036;-81
2021/12/04 08:30:25;;;;;;;44.38;25.52;;;4.70;99.90;;;;;;5078425;28;20036;-80
2021/12/04 08:32:53;;;;;;;43.58;24.52;;;4.60;99.90;;;;;;5080407;28;20102;-80
2021/12/04 08:35:23;;;;;;;44.22;24.83;;;4.80;99.90;;;;;;5047568;28;20032;-80
2021/12/04 08:37:50;;;;;;;48.58;24.75;;;4.60;99.90;;;;;;5046108;28;20035;-80
2021/12/04 08:40:17;;;;;;;39.80;22.70;;;4.60;99.90;;;;;;5063871;28;20067;-80
2021/12/04 08:42:45;;;;;;;36.90;21.77;;;4.70;99.90;;;;;;5063600;28;20043;-80
2021/12/04 08:45:13;;;;;;;40.38;22.77;;;4.80;99.90;;;;;;5080048;28;20483;-80
2021/12/04 08:47:39;;;;;;;39.08;21.88;;;4.70;99.90;;;;;;5057232;28;20036;-80
2021/12/04 08:50:11;;;;;;;36.25;20.25;;;4.70;99.90;;;;;;5063474;28;20491;-80
2021/12/04 08:52:38;;;;;;;38.45;21.15;;;4.80;99.90;;;;;;5079736;28;20085;-80
2021/12/04 08:55:05;;;;;;;37.67;21.55;;;4.80;99.90;;;;;;5079216;28;20454;-80
2021/12/04 08:57:32;;;;;;;34.05;21.33;;;4.80;99.90;;;;;;5063559;28;20074;-80
2021/12/04 08:59:58;;;;;;;34.92;19.77;;;4.90;99.90;;;;;;5045952;28;20120;-81
2021/12/04 09:02:24;;;;;;;38.45;21.70;;;4.90;99.90;;;;;;5030033;28;20069;-81
2021/12/04 09:04:50;;;;;;;35.92;21.25;;;4.90;99.90;;;;;;5076277;28;20045;-81
2021/12/04 09:07:18;;;;;;;38.53;23.10;;;4.90;99.90;;;;;;5062973;28;20613;-81
2021/12/04 09:09:45;;;;;;;38.50;22.35;;;4.90;99.90;;;;;;5074111;28;20044;-80
2021/12/04 09:12:14;;;;;;;39.05;22.30;;;4.90;99.90;;;;;;5078481;28;20036;-80
2021/12/04 09:14:42;;;;;;;40.70;22.98;;;4.90;99.90;;;;;;5078794;28;20028;-80
2021/12/04 09:17:10;;;;;;;37.25;21.10;;;5.00;99.90;;;;;;5072021;28;20564;-80
2021/12/04 09:19:36;;;;;;;41.67;22.88;;;5.00;99.90;;;;;;5046007;28;20040;-80
2021/12/04 09:22:04;;;;;;;40.90;22.77;;;4.90;99.90;;;;;;5080321;28;20039;-80
2021/12/04 09:24:39;;;;;;;43.20;23.15;;;4.90;99.90;;;;;;5076209;28;20396;-80
2021/12/04 10:02:34;;;;;;;45.80;23.85;;;5.10;99.90;;;;;;5065608;28;20044;-80
2021/12/04 10:05:40;;;;;;;48.00;24.95;;;5.10;99.90;;;;;;5047208;28;20423;-80
2021/12/04 10:11:28;;;;;;;42.72;23.27;;;5.10;99.90;;;;;;5065287;28;20039;-80
2021/12/04 10:25:00;;;;;;;42.88;22.45;;;5.20;99.90;;;;;;5076785;28;20041;-81
2021/12/04 10:33:14;;;;;;;36.72;19.58;;;5.20;99.90;;;;;;5075464;28;20036;-81
2021/12/04 10:35:41;;;;;;;37.03;18.63;;;5.30;99.90;;;;;;5059939;28;20048;-81
2021/12/04 10:38:12;;;;;;;41.13;20.98;;;5.20;99.90;;;;;;5057184;28;20040;-81
2021/12/04 10:40:44;;;;;;;45.15;23.58;;;5.30;99.90;;;;;;5058938;28;20515;-81
2021/12/04 10:43:14;;;;;;;45.65;24.80;;;5.20;99.90;;;;;;5041552;28;20058;-81
2021/12/04 10:45:50;;;;;;;48.53;24.35;;;5.20;99.90;;;;;;5062037;28;20098;-81
2021/12/04 10:48:20;;;;;;;48.13;25.40;;;5.20;99.90;;;;;;5071369;28;20377;-81
2021/12/04 10:50:56;;;;;;;47.58;24.92;;;5.20;99.90;;;;;;5077799;28;20047;-81
2021/12/04 10:53:29;;;;;;;48.80;24.98;;;5.20;99.90;;;;;;5061183;28;20051;-81
2021/12/04 11:01:37;;;;;;;40.20;23.25;;;5.30;99.90;;;;;;5078227;28;20407;-81
2021/12/04 11:37:44;;;;;;;50.28;28.92;;;5.30;99.90;;;;;;5066356;28;20051;-80
2021/12/04 11:42:47;;;;;;;42.95;27.08;;;5.40;99.90;;;;;;5073044;28;20048;-80
2021/12/04 11:45:21;;;;;;;45.22;27.80;;;5.40;99.90;;;;;;5080662;28;20047;-80
2021/12/04 11:47:52;;;;;;;49.80;29.17;;;5.70;99.90;;;;;;5064827;28;20055;-80
2021/12/04 11:50:23;;;;;;;44.80;27.40;;;5.40;99.90;;;;;;5061156;28;20032;-80
2021/12/04 11:52:53;;;;;;;51.45;30.77;;;5.50;99.90;;;;;;5077493;28;20047;-80
2021/12/04 11:55:21;;;;;;;56.97;32.42;;;5.40;99.90;;;;;;5082529;28;20048;-80
2021/12/04 11:57:48;;;;;;;53.25;29.95;;;5.40;99.90;;;;;;5080773;28;20040;-80
2021/12/04 12:00:40;;;;;;;56.80;31.02;;;5.40;99.90;;;;;;5064141;28;20119;-80
2021/12/04 12:03:19;;;;;;;61.47;32.78;;;5.40;99.90;;;;;;5075173;28;20055;-81
2021/12/04 12:06:18;;;;;;;67.00;35.42;;;5.50;99.90;;;;;;5064754;28;20036;-81
2021/12/04 12:08:45;;;;;;;60.53;31.98;;;5.40;99.90;;;;;;5072827;28;20106;-81
2021/12/04 12:11:27;;;;;;;65.72;33.72;;;5.50;99.90;;;;;;5047551;28;20133;-81
2021/12/04 12:14:08;;;;;;;71.67;36.17;;;5.50;99.90;;;;;;5064387;28;20047;-80
2021/12/04 12:16:39;;;;;;;76.18;38.05;;;5.40;99.90;;;;;;5076070;28;20041;-80
2021/12/04 12:19:21;;;;;;;66.57;34.85;;;5.50;99.90;;;;;;5063228;28;20575;-80
2021/12/04 12:22:03;;;;;;;77.80;38.05;;;5.50;99.90;;;;;;5050345;28;20053;-80
2021/12/04 12:33:19;;;;;;;61.42;32.92;;;5.60;99.90;;;;;;5090194;28;20040;-81
2021/12/04 12:36:13;;;;;;;60.83;31.52;;;5.60;99.90;;;;;;5016662;28;20113;-80
2021/12/04 12:38:58;;;;;;;60.95;32.75;;;5.50;99.90;;;;;;5005313;28;20073;-80
2021/12/04 12:41:48;;;;;;;58.17;30.52;;;5.50;99.90;;;;;;5061473;28;20055;-80
2021/12/04 12:44:17;;;;;;;57.15;29.25;;;5.50;99.90;;;;;;5067680;28;20067;-80
2021/12/04 12:46:50;;;;;;;59.67;30.17;;;5.50;99.90;;;;;;5067703;28;20043;-80
2021/12/04 12:49:36;;;;;;;55.58;29.70;;;5.60;99.90;;;;;;5052481;28;20044;-81
2021/12/04 12:52:13;;;;;;;51.05;30.05;;;5.70;99.90;;;;;;5079735;28;20035;-80
2021/12/04 12:54:43;;;;;;;50.70;28.70;;;5.60;99.90;;;;;;5048654;28;20048;-80
2021/12/04 12:57:26;;;;;;;48.33;26.10;;;5.60;99.90;;;;;;5058978;28;20432;-80
2021/12/04 13:11:41;;;;;;;50.90;27.58;;;5.60;99.90;;;;;;5070512;28;20075;-80
2021/12/04 13:14:30;;;;;;;54.17;29.00;;;5.60;99.90;;;;;;5048298;28;20036;-80
2021/12/04 13:17:12;;;;;;;59.45;29.40;;;5.60;99.90;;;;;;5054829;28;20028;-80
2021/12/04 13:19:45;;;;;;;58.35;32.35;;;5.50;99.90;;;;;;5045085;28;20033;-80
2021/12/04 13:22:31;;;;;;;61.60;30.95;;;5.50;99.90;;;;;;5052759;28;20059;-80
2021/12/04 13:25:03;;;;;;;63.08;31.98;;;5.40;99.90;;;;;;5067138;28;20044;-81
2021/12/04 13:30:01;;;;;;;73.53;34.67;;;5.50;99.90;;;;;;5078022;28;20416;-80
2021/12/04 13:32:32;;;;;;;74.00;36.23;;;5.40;99.90;;;;;;5046988;28;20037;-80
2021/12/04 13:35:21;;;;;;;73.88;36.83;;;5.40;99.90;;;;;;5049154;28;20634;-80
2021/12/04 13:37:49;;;;;;;78.72;36.92;;;5.40;99.90;;;;;;5075583;28;20433;-80
2021/12/04 13:40:19;;;;;;;72.82;36.50;;;5.40;99.90;;;;;;5065444;28;20040;-80
2021/12/04 13:42:46;;;;;;;83.93;38.55;;;5.40;99.90;;;;;;5073664;28;20040;-80
2021/12/04 13:45:16;;;;;;;83.35;38.40;;;5.40;99.90;;;;;;5053144;28;20380;-80
2021/12/04 13:47:43;;;;;;;73.40;34.00;;;5.40;99.90;;;;;;5052044;28;20399;-80
2021/12/04 13:53:02;;;;;;;74.13;36.65;;;5.50;99.90;;;;;;5064277;28;20070;-80
2021/12/04 13:55:29;;;;;;;75.80;37.47;;;5.40;99.90;;;;;;5064296;28;20581;-80
2021/12/04 13:57:57;;;;;;;75.75;36.25;;;5.40;99.90;;;;;;5061257;28;20364;-81
2021/12/04 14:00:23;;;;;;;77.68;36.80;;;5.50;99.90;;;;;;5062111;28;20408;-81
2021/12/04 14:02:49;;;;;;;75.00;35.85;;;5.40;99.90;;;;;;5047246;28;20121;-81
2021/12/04 14:05:18;;;;;;;77.07;36.22;;;5.50;99.90;;;;;;5058806;28;20040;-81
2021/12/04 14:07:59;;;;;;;73.50;33.42;;;5.50;99.90;;;;;;5044839;28;20100;-81
2021/12/04 14:10:31;;;;;;;72.30;33.78;;;5.50;99.90;;;;;;5050407;28;20054;-81
2021/12/04 14:12:59;;;;;;;77.43;35.58;;;5.50;99.90;;;;;;5049279;28;20037;-81
2021/12/04 14:15:26;;;;;;;74.75;36.17;;;5.50;99.90;;;;;;5051480;28;20067;-81
2021/12/04 14:18:01;;;;;;;77.22;35.90;;;5.50;99.90;;;;;;5046880;28;20041;-81
2021/12/04 14:20:28;;;;;;;75.40;36.55;;;6.10;99.90;;;;;;5050364;28;20041;-81
2021/12/04 14:22:55;;;;;;;72.25;34.70;;;5.40;99.90;;;;;;5047410;28;20408;-80
2021/12/04 14:25:22;;;;;;;75.70;35.67;;;5.50;99.90;;;;;;5038086;28;20051;-80
2021/12/04 14:27:50;;;;;;;77.70;37.33;;;5.40;99.90;;;;;;5051504;28;20101;-80
2021/12/04 14:30:21;;;;;;;76.35;36.80;;;5.40;99.90;;;;;;5059383;28;20120;-80
2021/12/04 14:32:53;;;;;;;69.35;34.92;;;5.40;99.90;;;;;;5053843;28;20043;-80
2021/12/04 14:35:21;;;;;;;68.25;34.30;;;5.40;99.90;;;;;;5067060;28;20054;-80
2021/12/04 14:37:53;;;;;;;75.07;36.42;;;5.40;99.90;;;;;;5058693;28;20032;-80
2021/12/04 14:40:22;;;;;;;70.53;35.10;;;5.40;99.90;;;;;;5073826;28;20047;-80
2021/12/04 14:42:49;;;;;;;80.38;36.25;;;5.40;99.90;;;;;;5062570;28;20580;-80
2021/12/04 14:45:22;;;;;;;77.72;37.50;;;5.40;99.90;;;;;;5061075;28;20040;-80
2021/12/04 14:47:56;;;;;;;71.43;35.85;;;5.40;99.90;;;;;;5061560;28;20048;-80
2021/12/04 14:50:24;;;;;;;74.75;38.35;;;5.40;99.90;;;;;;5061282;28;20100;-80
2021/12/04 14:52:52;;;;;;;77.43;38.42;;;5.40;99.90;;;;;;5078201;28;20373;-80
2021/12/04 14:55:26;;;;;;;78.25;37.60;;;5.40;99.90;;;;;;5048666;28;20036;-80
2021/12/04 14:57:52;;;;;;;78.18;36.35;;;5.40;99.90;;;;;;5060895;28;20032;-80
2021/12/04 15:00:44;;;;;;;84.35;38.97;;;5.40;99.90;;;;;;5061446;28;20407;-81
2021/12/04 15:03:28;;;;;;;91.28;42.45;;;5.30;99.90;;;;;;5061427;28;20135;-81
2021/12/04 15:06:02;;;;;;;83.93;39.45;;;5.30;99.90;;;;;;5040829;28;20037;-81
2021/12/04 15:08:32;;;;;;;87.95;42.05;;;5.30;99.90;;;;;;5039662;28;20389;-81
2021/12/04 15:11:10;;;;;;;82.10;39.50;;;5.20;99.90;;;;;;5059627;28;20487;-81
2021/12/04 15:13:49;;;;;;;78.90;39.08;;;5.20;99.90;;;;;;5079556;28;20509;-81
2021/12/04 15:16:19;;;;;;;88.90;41.30;;;5.30;99.90;;;;;;5064701;28;20051;-81
2021/12/04 15:18:45;;;;;;;82.75;39.78;;;5.20;99.90;;;;;;5067690;28;20036;-81
2021/12/04 15:21:15;;;;;;;80.80;39.60;;;5.20;99.90;;;;;;5065363;28;20058;-80
2021/12/04 15:23:42;;;;;;;78.43;39.38;;;5.20;99.90;;;;;;5080799;28;20040;-80
2021/12/04 15:26:16;;;;;;;75.35;39.53;;;5.20;99.90;;;;;;5081441;28;20036;-80
2021/12/04 15:28:49;;;;;;;78.60;39.45;;;5.20;99.90;;;;;;5065056;28;20085;-81
2021/12/04 15:31:16;;;;;;;77.90;40.35;;;5.20;99.90;;;;;;5082109;28;20055;-81
2021/12/04 15:33:46;;;;;;;73.22;39.67;;;5.30;99.90;;;;;;5065063;28;20032;-81
2021/12/04 15:36:27;;;;;;;65.70;36.35;;;5.30;99.90;;;;;;5065093;28;20452;-81
2021/12/04 15:38:56;;;;;;;63.25;36.25;;;5.30;99.90;;;;;;5080653;28;20110;-81
2021/12/04 15:41:58;;;;;;;72.80;39.83;;;5.30;99.90;;;;;;5071855;28;20110;-81
2021/12/04 15:53:00;;;;;;;63.85;38.30;;;5.30;99.90;;;;;;5081545;28;20048;-80
2021/12/04 15:55:35;;;;;;;61.50;37.78;;;5.30;99.90;;;;;;5064401;28;20044;-80
2021/12/04 15:58:08;;;;;;;58.13;36.13;;;5.20;99.90;;;;;;5076913;28;20036;-81
2021/12/04 16:00:37;;;;;;;54.30;35.85;;;5.30;99.90;;;;;;5074923;28;20040;-81
2021/12/04 16:03:06;;;;;;;56.97;35.33;;;5.30;99.90;;;;;;5050562;28;20067;-81
2021/12/04 16:05:38;;;;;;;53.90;34.80;;;5.30;99.90;;;;;;5048169;28;20040;-80
2021/12/04 16:08:13;;;;;;;55.40;34.72;;;5.30;99.90;;;;;;5080349;28;20044;-80